Wednesday, April 16, 2014
19:32 UTC
  |  Log In   |  Register Free
Airport Search:

Raleigh-Durham International Airport
(KRDU)

Airport information sponsored by:
Landmark Aviation - RDU at Raleigh-Durham International (KRDU), Raleigh/Durham, NC
FAA data valid effective April 3, 2014 until May 29, 2014 (unless otherwise noted).

 
 
 
 
 
 
 
 
 
 
 
 
 
 

Current Aviation Weather for Raleigh-Durham International Airport (KRDU)

The most recent METAR observation for KRDU was updated at: 1851 UTC
METAR Summary (Translated METAR)
KRDU
161851Z 07008KT 10SM CLR 11/M04 A3037 RMK AO2 SLP283 T01111039
KIGX
(14 nm NW from KRDU)
161856Z AUTO VRB05KT 10SM CLR 11/M05 A3037 RMK AO2 SLP284 T01111050
TAF Summary (Translated TAF)
KRDU
161733Z 1618/1718 05010G22KT P6SM SKC FM162300 07006KT P6SM SKC FM171400 05010G17KT P6SM SCT030
  Airport Weather Conditions for KRDU

 Current Weather at RDU
52° F
Fair
East winds at 9.2 mph
RDU NOAA Radar

Pressure: 30.37 in
Humidity: 35%
Wind: East at 9.2 MPH (8 KT)
Dew Point: 25.0°F
Visibility: 10.00 mi


Airport Weather Forecast for KRDU

Translated METAR and TAF for KRDU
Translated METAR for KRDU (1932 UTC 16 April 2014)
found at http://aviationweather.gov/adds/metars/
 
METAR text: KRDU 161851Z 07008KT 10SM CLR 11/M04 A3037 RMK AO2 SLP283 T01111039
Conditions at: KRDU (RALEIGH/DURHAM , NC, US) observed 1851 UTC 16 April 2014
Temperature: 11.1°C (52°F)
Dewpoint: -3.9°C (25°F) [RH = 35%]
Pressure (altimeter): 30.37 inches Hg (1028.5 mb)
[Sea-level pressure: 1028.3 mb]
Winds: from the ENE (70 degrees) at 9 MPH (8 knots; 4.2 m/s)
Visibility: 10 or more miles (16+ km)
Ceiling: at least 12,000 feet AGL
Clouds: sky clear below 12,000 feet AGL
Weather: no significant weather observed at this time
Translated TAF for KRDU
Forecast for: KRDU (RALEIGH/DURHAM , NC, US)
TAF Text: KRDU 161733Z 1618/1718 05010G22KT P6SM SKC
Forecast period: 1800 to 2300 UTC 16 April 2014
Forecast type: FROM: standard forecast or significant change
Winds: from the NE (50 degrees) at 12 MPH (10 knots; 5.2 m/s)
gusting to 25 MPH (22 knots; 11.4 m/s)
Visibility: 6 or more miles (10+ km)
Clouds: clear skies
Weather: no significant weather forecast for this period
TAF Text: FM162300 07006KT P6SM SKC
Forecast period: 2300 UTC 16 April 2014 to 1400 UTC 17 April 2014
Forecast type: FROM: standard forecast or significant change
Winds: from the ENE (70 degrees) at 7 MPH (6 knots; 3.1 m/s)
Visibility: 6 or more miles (10+ km)
Clouds: clear skies
Weather: no significant weather forecast for this period
TAF Text: FM171400 05010G17KT P6SM SCT030
Forecast period: 1400 to 1800 UTC 17 April 2014
Forecast type: FROM: standard forecast or significant change
Winds: from the NE (50 degrees) at 12 MPH (10 knots; 5.2 m/s)
gusting to 20 MPH (17 knots; 8.8 m/s)
Visibility: 6 or more miles (10+ km)
Clouds: scattered clouds at 3000 feet AGL
Weather: no significant weather forecast for this period

Find All Airport Services Find A Hotel Find A Rental Car Find A Golf Course Find A Restaurant $100 Hamburger



FBO's on the Field
FBO Company Facility Photos Services Transportation Aviation Fuel Prices: Prices include tax
Catering Weather Repair Courtesy Rental Type 100LL JetA JetA+ MOGAS 8087
 
Landmark Aviation - RDU

Landmark Aviation - RDU logo
Currently rated 4.4 by 2 people
FS:
Last Updated: Apr-16
Login to update fuel prices
SS:
Contact Landmark Aviation - RDUMore FBO Information
 
Tac Air - RDU

Currently rated 1.8 by 3 people
FS:Avfuel
Last Updated: Mar-25
Login to update fuel prices
SS:
Contact Tac Air - RDUMore FBO Information
 
Add another FBO Facility Photos Catering Weather Repair Courtesy Rental Type 100LL JetA JetA+ MOGAS 8087
Services Transportation Aviation Fuel Prices: Prices include tax


GlobalAir.com Airport Resource Center model-print
model-print
model-print
model-print